DEART EDFZ-EDLW
Flight info
| Callsign | DEART |
|---|---|
| Flight time | 1h 14m |
| Altitude | 6500 |
| Route | 495736N0072430E 500006N0073946E 495832N0075245E NONKO EDRY KRH 485024N0081342E |
| Aircraft | C152/L-SDFGY/S |
Departure
| Time | 2026-04-27 18:32 |
|---|---|
| Airport | Mainz-Finthen Airfield (EDFZ) |
Arrival
| Time | 2026-04-27 19:47 |
|---|---|
| Airport | Dortmund Airport (EDLW) |
| Time | Latitude | Longitude | Altitude | Speed | Heading |
|---|---|---|---|---|---|
| 2026-04-27 18:11 | 49.97160 | 8.15033 | 753 ft | 0 kts | 257° |
| 2026-04-27 18:25 | 49.97160 | 8.15031 | 759 ft | 2 kts | 256° |
| 2026-04-27 18:25 | 49.97135 | 8.15022 | 760 ft | 8 kts | 162° |
| 2026-04-27 18:25 | 49.97100 | 8.14998 | 759 ft | 8 kts | 258° |
| 2026-04-27 18:26 | 49.97083 | 8.14894 | 759 ft | 12 kts | 255° |
| 2026-04-27 18:26 | 49.97058 | 8.14760 | 760 ft | 14 kts | 253° |
| 2026-04-27 18:26 | 49.97031 | 8.14604 | 760 ft | 16 kts | 255° |
| 2026-04-27 18:26 | 49.96999 | 8.14427 | 760 ft | 18 kts | 256° |
| 2026-04-27 18:27 | 49.96967 | 8.14236 | 757 ft | 19 kts | 253° |
| 2026-04-27 18:27 | 49.96905 | 8.14083 | 759 ft | 16 kts | 185° |
| 2026-04-27 18:27 | 49.96856 | 8.14098 | 758 ft | 0 kts | 123° |
| 2026-04-27 18:30 | 49.96855 | 8.14100 | 758 ft | 2 kts | 135° |
| 2026-04-27 18:31 | 49.96812 | 8.14117 | 759 ft | 8 kts | 161° |
| 2026-04-27 18:31 | 49.96806 | 8.14171 | 759 ft | 5 kts | 75° |
| 2026-04-27 18:31 | 49.96834 | 8.14330 | 760 ft | 37 kts | 73° |
| 2026-04-27 18:31 | 49.96936 | 8.14925 | 820 ft | 65 kts | 75° |
| 2026-04-27 18:32 | 49.97005 | 8.15516 | 1070 ft | 53 kts | 75° |
| 2026-04-27 18:32 | 49.97094 | 8.16078 | 1211 ft | 55 kts | 68° |
| 2026-04-27 18:32 | 49.97201 | 8.16611 | 1417 ft | 52 kts | 67° |
| 2026-04-27 18:32 | 49.97236 | 8.17189 | 1496 ft | 62 kts | 111° |
| 2026-04-27 18:33 | 49.96800 | 8.17493 | 1587 ft | 76 kts | 169° |
| 2026-04-27 18:33 | 49.96265 | 8.17443 | 1728 ft | 79 kts | 184° |
| 2026-04-27 18:33 | 49.95765 | 8.16919 | 1792 ft | 94 kts | 221° |
| 2026-04-27 18:33 | 49.95240 | 8.16286 | 1865 ft | 99 kts | 234° |
| 2026-04-27 18:34 | 49.95022 | 8.15244 | 1845 ft | 107 kts | 251° |
| 2026-04-27 18:34 | 49.94762 | 8.14127 | 1817 ft | 111 kts | 254° |
| 2026-04-27 18:34 | 49.94519 | 8.12988 | 1817 ft | 109 kts | 256° |
| 2026-04-27 18:34 | 49.94295 | 8.11860 | 1794 ft | 109 kts | 256° |
| 2026-04-27 18:35 | 49.94215 | 8.10710 | 1774 ft | 106 kts | 289° |
| 2026-04-27 18:35 | 49.94637 | 8.09905 | 1794 ft | 96 kts | 340° |
| 2026-04-27 18:35 | 49.95266 | 8.09542 | 1807 ft | 94 kts | 348° |
| 2026-04-27 18:35 | 49.95856 | 8.09246 | 1919 ft | 88 kts | 348° |
| 2026-04-27 18:36 | 49.96449 | 8.08916 | 1976 ft | 91 kts | 347° |
| 2026-04-27 18:36 | 49.97020 | 8.08604 | 2067 ft | 87 kts | 347° |
| 2026-04-27 18:36 | 49.97611 | 8.08307 | 2107 ft | 88 kts | 348° |
| 2026-04-27 18:36 | 49.98182 | 8.08023 | 2189 ft | 86 kts | 348° |
| 2026-04-27 18:37 | 49.98760 | 8.07704 | 2240 ft | 88 kts | 346° |
| 2026-04-27 18:37 | 49.99319 | 8.07376 | 2332 ft | 85 kts | 346° |
| 2026-04-27 18:37 | 49.99883 | 8.07047 | 2382 ft | 88 kts | 345° |
| 2026-04-27 18:37 | 50.00451 | 8.06679 | 2458 ft | 88 kts | 343° |
| 2026-04-27 18:38 | 50.01013 | 8.06272 | 2509 ft | 90 kts | 341° |
| 2026-04-27 18:38 | 50.01593 | 8.05844 | 2542 ft | 90 kts | 342° |
| 2026-04-27 18:38 | 50.02162 | 8.05474 | 2565 ft | 90 kts | 343° |
| 2026-04-27 18:38 | 50.02750 | 8.05130 | 2600 ft | 88 kts | 346° |
| 2026-04-27 18:39 | 50.03334 | 8.04806 | 2616 ft | 89 kts | 345° |
| 2026-04-27 18:39 | 50.03917 | 8.04445 | 2616 ft | 92 kts | 340° |
| 2026-04-27 18:39 | 50.04505 | 8.03995 | 2688 ft | 92 kts | 338° |
| 2026-04-27 18:39 | 50.05064 | 8.03527 | 2799 ft | 91 kts | 337° |
| 2026-04-27 18:40 | 50.05656 | 8.03212 | 2860 ft | 93 kts | 353° |
| 2026-04-27 18:40 | 50.06299 | 8.03061 | 2881 ft | 93 kts | 358° |
| 2026-04-27 18:40 | 50.06932 | 8.02942 | 2914 ft | 91 kts | 359° |
| 2026-04-27 18:40 | 50.07550 | 8.02866 | 2949 ft | 90 kts | 2° |
| 2026-04-27 18:41 | 50.08181 | 8.02830 | 2930 ft | 89 kts | 4° |
| 2026-04-27 18:41 | 50.08807 | 8.02825 | 2922 ft | 91 kts | 5° |
| 2026-04-27 18:41 | 50.09435 | 8.02821 | 2958 ft | 90 kts | 6° |
| 2026-04-27 18:41 | 50.10071 | 8.02835 | 2960 ft | 94 kts | 7° |
| 2026-04-27 18:42 | 50.10716 | 8.02879 | 2978 ft | 94 kts | 10° |
| 2026-04-27 18:42 | 50.11132 | 8.02928 | 3071 ft | 85 kts | 11° |
| 2026-04-27 18:42 | 50.11938 | 8.03070 | 3119 ft | 89 kts | 14° |
| 2026-04-27 18:42 | 50.12547 | 8.03248 | 3150 ft | 89 kts | 16° |
| 2026-04-27 18:43 | 50.13155 | 8.03491 | 3172 ft | 90 kts | 22° |
| 2026-04-27 18:43 | 50.13727 | 8.03793 | 3256 ft | 87 kts | 24° |
| 2026-04-27 18:43 | 50.13777 | 8.03819 | 3258 ft | 88 kts | 23° |
| 2026-04-27 18:43 | 50.13839 | 8.03848 | 3259 ft | 88 kts | 21° |
| 2026-04-27 18:44 | 50.14428 | 8.04086 | 3302 ft | 87 kts | 20° |
| 2026-04-27 18:44 | 50.15018 | 8.04344 | 3357 ft | 88 kts | 22° |
| 2026-04-27 18:44 | 50.15585 | 8.04608 | 3497 ft | 84 kts | 21° |
| 2026-04-27 18:44 | 50.16170 | 8.04841 | 3567 ft | 87 kts | 18° |
| 2026-04-27 18:45 | 50.16759 | 8.05030 | 3667 ft | 87 kts | 16° |
| 2026-04-27 18:45 | 50.17353 | 8.05203 | 3771 ft | 85 kts | 14° |
| 2026-04-27 18:45 | 50.17951 | 8.05292 | 3860 ft | 85 kts | 11° |
| 2026-04-27 18:45 | 50.18539 | 8.05437 | 3940 ft | 87 kts | 16° |
| 2026-04-27 18:46 | 50.19134 | 8.05565 | 4061 ft | 85 kts | 7° |
| 2026-04-27 18:46 | 50.19722 | 8.05530 | 4186 ft | 83 kts | 1° |
| 2026-04-27 18:46 | 50.20309 | 8.05474 | 4285 ft | 83 kts | 1° |
| 2026-04-27 18:46 | 50.20861 | 8.05424 | 4421 ft | 81 kts | 1° |
| 2026-04-27 18:47 | 50.21428 | 8.05391 | 4551 ft | 82 kts | 4° |
| 2026-04-27 18:47 | 50.21993 | 8.05384 | 4681 ft | 81 kts | 5° |
| 2026-04-27 18:47 | 50.22549 | 8.05397 | 4803 ft | 80 kts | 6° |
| 2026-04-27 18:47 | 50.23094 | 8.05439 | 4940 ft | 79 kts | 6° |
| 2026-04-27 18:48 | 50.23656 | 8.05469 | 5024 ft | 83 kts | 3° |
| 2026-04-27 18:48 | 50.24239 | 8.05404 | 5122 ft | 85 kts | 0° |
| 2026-04-27 18:48 | 50.24645 | 8.05372 | 5138 ft | 91 kts | 1° |
| 2026-04-27 18:48 | 50.25291 | 8.05335 | 5139 ft | 96 kts | 0° |
| 2026-04-27 18:49 | 50.25964 | 8.05227 | 5133 ft | 99 kts | 355° |
| 2026-04-27 18:49 | 50.26871 | 8.05050 | 5138 ft | 99 kts | 356° |
| 2026-04-27 18:49 | 50.27327 | 8.04963 | 5120 ft | 100 kts | 356° |
| 2026-04-27 18:49 | 50.28018 | 8.04843 | 5126 ft | 99 kts | 357° |
| 2026-04-27 18:50 | 50.28707 | 8.04740 | 5122 ft | 99 kts | 358° |
| 2026-04-27 18:50 | 50.29390 | 8.04655 | 5139 ft | 97 kts | 359° |
| 2026-04-27 18:50 | 50.30021 | 8.04616 | 5274 ft | 88 kts | 4° |
| 2026-04-27 18:50 | 50.30630 | 8.04638 | 5368 ft | 88 kts | 5° |
| 2026-04-27 18:51 | 50.31248 | 8.04690 | 5469 ft | 86 kts | 8° |
| 2026-04-27 18:51 | 50.31831 | 8.04720 | 5580 ft | 85 kts | 355° |
| 2026-04-27 18:51 | 50.32390 | 8.04439 | 5708 ft | 84 kts | 339° |
| 2026-04-27 18:51 | 50.32925 | 8.04110 | 5829 ft | 84 kts | 342° |
| 2026-04-27 18:52 | 50.33465 | 8.03786 | 5952 ft | 85 kts | 340° |
| 2026-04-27 18:52 | 50.34020 | 8.03460 | 6016 ft | 90 kts | 344° |
| 2026-04-27 18:52 | 50.34585 | 8.03079 | 6120 ft | 88 kts | 339° |
| 2026-04-27 18:53 | 50.35699 | 8.02431 | 6374 ft | 84 kts | 342° |
| 2026-04-27 18:53 | 50.36264 | 8.02163 | 6480 ft | 85 kts | 342° |
| 2026-04-27 18:53 | 50.36826 | 8.01912 | 6576 ft | 85 kts | 346° |
| 2026-04-27 18:53 | 50.37398 | 8.01691 | 6667 ft | 87 kts | 347° |
| 2026-04-27 18:54 | 50.37992 | 8.01483 | 6753 ft | 89 kts | 347° |
| 2026-04-27 18:54 | 50.38631 | 8.01239 | 6758 ft | 96 kts | 344° |
| 2026-04-27 18:54 | 50.39272 | 8.00951 | 6736 ft | 95 kts | 344° |
| 2026-04-27 18:54 | 50.39886 | 8.00712 | 6765 ft | 89 kts | 347° |
| 2026-04-27 18:55 | 50.40493 | 8.00502 | 6762 ft | 88 kts | 346° |
| 2026-04-27 18:55 | 50.41080 | 8.00235 | 6743 ft | 89 kts | 344° |
| 2026-04-27 18:55 | 50.41674 | 7.99975 | 6738 ft | 88 kts | 343° |
| 2026-04-27 18:55 | 50.42264 | 7.99682 | 6708 ft | 89 kts | 343° |
| 2026-04-27 18:56 | 50.42867 | 7.99469 | 6682 ft | 89 kts | 349° |
| 2026-04-27 18:56 | 50.43479 | 7.99309 | 6660 ft | 89 kts | 351° |
| 2026-04-27 18:56 | 50.44080 | 7.99160 | 6649 ft | 89 kts | 351° |
| 2026-04-27 18:56 | 50.44688 | 7.98976 | 6637 ft | 89 kts | 346° |
| 2026-04-27 18:57 | 50.45275 | 7.98697 | 6636 ft | 87 kts | 344° |
| 2026-04-27 18:57 | 50.45879 | 7.98497 | 6619 ft | 88 kts | 350° |
| 2026-04-27 18:57 | 50.46473 | 7.98349 | 6617 ft | 87 kts | 350° |
| 2026-04-27 18:57 | 50.47071 | 7.98161 | 6624 ft | 87 kts | 348° |
| 2026-04-27 18:58 | 50.47667 | 7.97973 | 6623 ft | 87 kts | 351° |
| 2026-04-27 18:58 | 50.48276 | 7.97865 | 6617 ft | 87 kts | 355° |
| 2026-04-27 18:58 | 50.48873 | 7.97783 | 6615 ft | 87 kts | 354° |
| 2026-04-27 18:58 | 50.49482 | 7.97683 | 6616 ft | 87 kts | 354° |
| 2026-04-27 18:59 | 50.50080 | 7.97573 | 6615 ft | 87 kts | 352° |
| 2026-04-27 18:59 | 50.50681 | 7.97442 | 6615 ft | 87 kts | 354° |
| 2026-04-27 18:59 | 50.51290 | 7.97353 | 6616 ft | 87 kts | 356° |
| 2026-04-27 18:59 | 50.51898 | 7.97279 | 6615 ft | 87 kts | 354° |
| 2026-04-27 19:00 | 50.52492 | 7.97137 | 6614 ft | 87 kts | 351° |
| 2026-04-27 19:00 | 50.53099 | 7.97028 | 6611 ft | 87 kts | 356° |
| 2026-04-27 19:00 | 50.53705 | 7.96971 | 6612 ft | 87 kts | 358° |
| 2026-04-27 19:00 | 50.54314 | 7.96937 | 6613 ft | 87 kts | 358° |
| 2026-04-27 19:01 | 50.54922 | 7.96911 | 6613 ft | 87 kts | 359° |
| 2026-04-27 19:01 | 50.55531 | 7.96896 | 6613 ft | 87 kts | 0° |
| 2026-04-27 19:01 | 50.56131 | 7.96886 | 6614 ft | 87 kts | 359° |
| 2026-04-27 19:01 | 50.56739 | 7.96863 | 6613 ft | 87 kts | 359° |
| 2026-04-27 19:02 | 50.57348 | 7.96856 | 6614 ft | 87 kts | 0° |
| 2026-04-27 19:02 | 50.57956 | 7.96855 | 6614 ft | 87 kts | 0° |
| 2026-04-27 19:02 | 50.58566 | 7.96837 | 6614 ft | 87 kts | 358° |
| 2026-04-27 19:02 | 50.59168 | 7.96803 | 6613 ft | 87 kts | 358° |
| 2026-04-27 19:03 | 50.59777 | 7.96744 | 6614 ft | 87 kts | 356° |
| 2026-04-27 19:03 | 50.60381 | 7.96657 | 6622 ft | 87 kts | 353° |
| 2026-04-27 19:03 | 50.60985 | 7.96532 | 6623 ft | 87 kts | 354° |
| 2026-04-27 19:03 | 50.61386 | 7.96459 | 6626 ft | 87 kts | 353° |
| 2026-04-27 19:04 | 50.62183 | 7.96267 | 6625 ft | 87 kts | 349° |
| 2026-04-27 19:04 | 50.62782 | 7.96098 | 6628 ft | 87 kts | 351° |
| 2026-04-27 19:04 | 50.63384 | 7.95956 | 6629 ft | 87 kts | 352° |
| 2026-04-27 19:04 | 50.63977 | 7.95815 | 6628 ft | 87 kts | 351° |
| 2026-04-27 19:05 | 50.64577 | 7.95653 | 6628 ft | 87 kts | 350° |
| 2026-04-27 19:05 | 50.65177 | 7.95496 | 6628 ft | 87 kts | 351° |
| 2026-04-27 19:05 | 50.65779 | 7.95333 | 6627 ft | 87 kts | 349° |
| 2026-04-27 19:05 | 50.66377 | 7.95155 | 6625 ft | 87 kts | 352° |
| 2026-04-27 19:06 | 50.66971 | 7.95036 | 6626 ft | 87 kts | 354° |
| 2026-04-27 19:06 | 50.67560 | 7.94983 | 6655 ft | 83 kts | 356° |
| 2026-04-27 19:06 | 50.68154 | 7.94983 | 6638 ft | 86 kts | 0° |
| 2026-04-27 19:06 | 50.68747 | 7.95014 | 6648 ft | 84 kts | 0° |
| 2026-04-27 19:07 | 50.69333 | 7.95112 | 6636 ft | 87 kts | 7° |
| 2026-04-27 19:07 | 50.69922 | 7.95266 | 6654 ft | 85 kts | 8° |
| 2026-04-27 19:07 | 50.70512 | 7.95415 | 6660 ft | 85 kts | 6° |
| 2026-04-27 19:07 | 50.71103 | 7.95485 | 6652 ft | 85 kts | 359° |
| 2026-04-27 19:08 | 50.71688 | 7.95532 | 6654 ft | 85 kts | 2° |
| 2026-04-27 19:08 | 50.72283 | 7.95583 | 6648 ft | 86 kts | 359° |
| 2026-04-27 19:08 | 50.72881 | 7.95550 | 6656 ft | 84 kts | 358° |
| 2026-04-27 19:08 | 50.73466 | 7.95547 | 6640 ft | 86 kts | 359° |
| 2026-04-27 19:09 | 50.74066 | 7.95572 | 6646 ft | 85 kts | 0° |
| 2026-04-27 19:09 | 50.74658 | 7.95606 | 6648 ft | 85 kts | 359° |
| 2026-04-27 19:09 | 50.75253 | 7.95616 | 6647 ft | 85 kts | 358° |
| 2026-04-27 19:09 | 50.75830 | 7.95615 | 6653 ft | 84 kts | 357° |
| 2026-04-27 19:10 | 50.76424 | 7.95569 | 6649 ft | 84 kts | 355° |
| 2026-04-27 19:10 | 50.77016 | 7.95496 | 6640 ft | 85 kts | 353° |
| 2026-04-27 19:10 | 50.77601 | 7.95421 | 6646 ft | 86 kts | 353° |
| 2026-04-27 19:10 | 50.77999 | 7.95368 | 6649 ft | 85 kts | 354° |
| 2026-04-27 19:11 | 50.78787 | 7.95293 | 6648 ft | 85 kts | 356° |
| 2026-04-27 19:11 | 50.79375 | 7.95273 | 6644 ft | 86 kts | 358° |
| 2026-04-27 19:11 | 50.79969 | 7.95248 | 6663 ft | 83 kts | 356° |
| 2026-04-27 19:11 | 50.80549 | 7.95231 | 6653 ft | 85 kts | 358° |
| 2026-04-27 19:12 | 50.81144 | 7.95215 | 6661 ft | 85 kts | 356° |
| 2026-04-27 19:12 | 50.81736 | 7.95193 | 6672 ft | 84 kts | 357° |
| 2026-04-27 19:12 | 50.82324 | 7.95157 | 6667 ft | 86 kts | 356° |
| 2026-04-27 19:12 | 50.82913 | 7.95101 | 6685 ft | 85 kts | 355° |
| 2026-04-27 19:13 | 50.83506 | 7.95016 | 6706 ft | 83 kts | 353° |
| 2026-04-27 19:13 | 50.84090 | 7.94919 | 6683 ft | 85 kts | 352° |
| 2026-04-27 19:13 | 50.84671 | 7.94799 | 6697 ft | 84 kts | 350° |
| 2026-04-27 19:13 | 50.85239 | 7.94669 | 6700 ft | 83 kts | 350° |
| 2026-04-27 19:14 | 50.85830 | 7.94518 | 6696 ft | 85 kts | 352° |
| 2026-04-27 19:14 | 50.86408 | 7.94403 | 6718 ft | 85 kts | 351° |
| 2026-04-27 19:14 | 50.86997 | 7.94246 | 6720 ft | 85 kts | 349° |
| 2026-04-27 19:14 | 50.87574 | 7.94086 | 6717 ft | 85 kts | 349° |
| 2026-04-27 19:15 | 50.88153 | 7.93930 | 6720 ft | 84 kts | 351° |
| 2026-04-27 19:15 | 50.88742 | 7.93799 | 6725 ft | 84 kts | 351° |
| 2026-04-27 19:15 | 50.89315 | 7.93689 | 6722 ft | 85 kts | 352° |
| 2026-04-27 19:15 | 50.89905 | 7.93586 | 6731 ft | 83 kts | 353° |
| 2026-04-27 19:16 | 50.90497 | 7.93506 | 6711 ft | 86 kts | 354° |
| 2026-04-27 19:16 | 50.90884 | 7.93461 | 6727 ft | 84 kts | 355° |
| 2026-04-27 19:16 | 50.91673 | 7.93387 | 6705 ft | 86 kts | 355° |
| 2026-04-27 19:16 | 50.92266 | 7.93320 | 6711 ft | 85 kts | 354° |
| 2026-04-27 19:17 | 50.92854 | 7.93248 | 6694 ft | 86 kts | 354° |
| 2026-04-27 19:17 | 50.93453 | 7.93190 | 6694 ft | 86 kts | 356° |
| 2026-04-27 19:17 | 50.94032 | 7.93147 | 6715 ft | 83 kts | 354° |
| 2026-04-27 19:17 | 50.94627 | 7.93075 | 6698 ft | 86 kts | 354° |
| 2026-04-27 19:18 | 50.95212 | 7.92986 | 6737 ft | 83 kts | 351° |
| 2026-04-27 19:18 | 50.95795 | 7.92874 | 6719 ft | 86 kts | 354° |
| 2026-04-27 19:18 | 50.96383 | 7.92834 | 6752 ft | 84 kts | 360° |
| 2026-04-27 19:18 | 50.96977 | 7.92836 | 6748 ft | 84 kts | 0° |
| 2026-04-27 19:19 | 50.97566 | 7.92890 | 6757 ft | 85 kts | 5° |
| 2026-04-27 19:19 | 50.98148 | 7.93041 | 6760 ft | 85 kts | 8° |
| 2026-04-27 19:19 | 50.98735 | 7.93226 | 6749 ft | 87 kts | 12° |
| 2026-04-27 19:19 | 50.99304 | 7.93484 | 6772 ft | 85 kts | 15° |
| 2026-04-27 19:20 | 50.99885 | 7.93713 | 6751 ft | 86 kts | 9° |
| 2026-04-27 19:20 | 51.00476 | 7.93834 | 6753 ft | 85 kts | 4° |
| 2026-04-27 19:20 | 51.01070 | 7.93864 | 6749 ft | 85 kts | 356° |
| 2026-04-27 19:20 | 51.01661 | 7.93786 | 6745 ft | 84 kts | 354° |
| 2026-04-27 19:21 | 51.02243 | 7.93730 | 6745 ft | 85 kts | 356° |
| 2026-04-27 19:21 | 51.02838 | 7.93690 | 6752 ft | 84 kts | 356° |
| 2026-04-27 19:21 | 51.03423 | 7.93643 | 6735 ft | 84 kts | 354° |
| 2026-04-27 19:21 | 51.04010 | 7.93539 | 6736 ft | 86 kts | 352° |
| 2026-04-27 19:22 | 51.04599 | 7.93418 | 6767 ft | 84 kts | 352° |
| 2026-04-27 19:22 | 51.05177 | 7.93302 | 6770 ft | 84 kts | 353° |
| 2026-04-27 19:22 | 51.05767 | 7.93254 | 6752 ft | 87 kts | 357° |
| 2026-04-27 19:22 | 51.06358 | 7.93242 | 6787 ft | 83 kts | 358° |
| 2026-04-27 19:23 | 51.06948 | 7.93235 | 6787 ft | 84 kts | 356° |
| 2026-04-27 19:23 | 51.07517 | 7.93120 | 6806 ft | 84 kts | 348° |
| 2026-04-27 19:23 | 51.08071 | 7.92869 | 6830 ft | 81 kts | 339° |
| 2026-04-27 19:23 | 51.08612 | 7.92514 | 6795 ft | 86 kts | 337° |
| 2026-04-27 19:24 | 51.09138 | 7.92144 | 6831 ft | 82 kts | 334° |
| 2026-04-27 19:24 | 51.09666 | 7.91716 | 6818 ft | 84 kts | 335° |
| 2026-04-27 19:24 | 51.10180 | 7.91330 | 6827 ft | 84 kts | 336° |
| 2026-04-27 19:24 | 51.10733 | 7.91013 | 6831 ft | 83 kts | 345° |
| 2026-04-27 19:25 | 51.11307 | 7.90803 | 6844 ft | 82 kts | 348° |
| 2026-04-27 19:25 | 51.11866 | 7.90642 | 6839 ft | 84 kts | 350° |
| 2026-04-27 19:25 | 51.12452 | 7.90513 | 6831 ft | 84 kts | 353° |
| 2026-04-27 19:25 | 51.13024 | 7.90432 | 6824 ft | 84 kts | 355° |
| 2026-04-27 19:26 | 51.13622 | 7.90385 | 6813 ft | 84 kts | 358° |
| 2026-04-27 19:26 | 51.14195 | 7.90366 | 6819 ft | 84 kts | 358° |
| 2026-04-27 19:26 | 51.14773 | 7.90305 | 6815 ft | 83 kts | 354° |
| 2026-04-27 19:26 | 51.15355 | 7.90186 | 6788 ft | 83 kts | 351° |
| 2026-04-27 19:27 | 51.15928 | 7.90027 | 6768 ft | 83 kts | 350° |
| 2026-04-27 19:27 | 51.16483 | 7.89850 | 6743 ft | 83 kts | 347° |
| 2026-04-27 19:27 | 51.17055 | 7.89629 | 6717 ft | 83 kts | 347° |
| 2026-04-27 19:27 | 51.17620 | 7.89435 | 6688 ft | 85 kts | 348° |
| 2026-04-27 19:28 | 51.18201 | 7.89262 | 6690 ft | 85 kts | 351° |
| 2026-04-27 19:28 | 51.18775 | 7.89096 | 6712 ft | 83 kts | 344° |
| 2026-04-27 19:28 | 51.19297 | 7.88696 | 6710 ft | 84 kts | 325° |
| 2026-04-27 19:28 | 51.19726 | 7.88048 | 6712 ft | 84 kts | 316° |
| 2026-04-27 19:29 | 51.20128 | 7.87384 | 6728 ft | 83 kts | 315° |
| 2026-04-27 19:29 | 51.20516 | 7.86688 | 6738 ft | 84 kts | 312° |
| 2026-04-27 19:29 | 51.20886 | 7.85984 | 6732 ft | 83 kts | 311° |
| 2026-04-27 19:29 | 51.21258 | 7.85253 | 6709 ft | 85 kts | 311° |
| 2026-04-27 19:30 | 51.21640 | 7.84557 | 6695 ft | 86 kts | 315° |
| 2026-04-27 19:30 | 51.22055 | 7.83876 | 6710 ft | 82 kts | 316° |
| 2026-04-27 19:30 | 51.22455 | 7.83204 | 6712 ft | 85 kts | 315° |
| 2026-04-27 19:30 | 51.22863 | 7.82518 | 6712 ft | 85 kts | 313° |
| 2026-04-27 19:31 | 51.23234 | 7.81782 | 6719 ft | 85 kts | 307° |
| 2026-04-27 19:31 | 51.23578 | 7.81020 | 6726 ft | 85 kts | 308° |
| 2026-04-27 19:31 | 51.23987 | 7.80336 | 6716 ft | 85 kts | 324° |
| 2026-04-27 19:31 | 51.24477 | 7.79847 | 6737 ft | 84 kts | 332° |
| 2026-04-27 19:32 | 51.25014 | 7.79437 | 6722 ft | 84 kts | 337° |
| 2026-04-27 19:32 | 51.25547 | 7.79095 | 6731 ft | 84 kts | 340° |
| 2026-04-27 19:32 | 51.26090 | 7.78779 | 6769 ft | 81 kts | 342° |
| 2026-04-27 19:32 | 51.26646 | 7.78529 | 6734 ft | 86 kts | 346° |
| 2026-04-27 19:33 | 51.27207 | 7.78290 | 6765 ft | 81 kts | 344° |
| 2026-04-27 19:33 | 51.27387 | 7.78207 | 6739 ft | 85 kts | 344° |
| 2026-04-27 19:33 | 51.28350 | 7.77836 | 6659 ft | 86 kts | 349° |
| 2026-04-27 19:33 | 51.28933 | 7.77691 | 6554 ft | 84 kts | 353° |
| 2026-04-27 19:34 | 51.29313 | 7.77597 | 6471 ft | 84 kts | 342° |
| 2026-04-27 19:34 | 51.29830 | 7.77099 | 6333 ft | 87 kts | 318° |
| 2026-04-27 19:34 | 51.30218 | 7.76379 | 6231 ft | 86 kts | 311° |
| 2026-04-27 19:34 | 51.30618 | 7.75648 | 6100 ft | 88 kts | 314° |
| 2026-04-27 19:35 | 51.31040 | 7.74965 | 6001 ft | 87 kts | 317° |
| 2026-04-27 19:35 | 51.31492 | 7.74299 | 5867 ft | 89 kts | 319° |
| 2026-04-27 19:35 | 51.31961 | 7.73660 | 5755 ft | 88 kts | 320° |
| 2026-04-27 19:35 | 51.32425 | 7.73037 | 5633 ft | 87 kts | 322° |
| 2026-04-27 19:36 | 51.32918 | 7.72441 | 5478 ft | 88 kts | 322° |
| 2026-04-27 19:36 | 51.33401 | 7.71863 | 5339 ft | 88 kts | 324° |
| 2026-04-27 19:36 | 51.33906 | 7.71299 | 5199 ft | 88 kts | 327° |
| 2026-04-27 19:36 | 51.34423 | 7.70781 | 5049 ft | 89 kts | 327° |
| 2026-04-27 19:37 | 51.34944 | 7.70266 | 4918 ft | 88 kts | 328° |
| 2026-04-27 19:37 | 51.35479 | 7.69758 | 4754 ft | 90 kts | 330° |
| 2026-04-27 19:37 | 51.36008 | 7.69234 | 4603 ft | 91 kts | 330° |
| 2026-04-27 19:37 | 51.36543 | 7.68694 | 4453 ft | 90 kts | 330° |
| 2026-04-27 19:38 | 51.37084 | 7.68179 | 4317 ft | 90 kts | 332° |
| 2026-04-27 19:38 | 51.37626 | 7.67685 | 4177 ft | 91 kts | 335° |
| 2026-04-27 19:38 | 51.38184 | 7.67248 | 4053 ft | 89 kts | 340° |
| 2026-04-27 19:38 | 51.38768 | 7.66870 | 3906 ft | 91 kts | 344° |
| 2026-04-27 19:39 | 51.39365 | 7.66569 | 3783 ft | 91 kts | 343° |
| 2026-04-27 19:39 | 51.39914 | 7.66071 | 3640 ft | 92 kts | 329° |
| 2026-04-27 19:39 | 51.40368 | 7.65322 | 3452 ft | 94 kts | 307° |
| 2026-04-27 19:39 | 51.40758 | 7.64487 | 3250 ft | 95 kts | 314° |
| 2026-04-27 19:40 | 51.41197 | 7.63719 | 3084 ft | 93 kts | 316° |
| 2026-04-27 19:40 | 51.41614 | 7.62934 | 2874 ft | 92 kts | 322° |
| 2026-04-27 19:40 | 51.42162 | 7.62489 | 2664 ft | 86 kts | 358° |
| 2026-04-27 19:40 | 51.42744 | 7.62433 | 2467 ft | 82 kts | 9° |
| 2026-04-27 19:41 | 51.43294 | 7.62499 | 2297 ft | 78 kts | 17° |
| 2026-04-27 19:41 | 51.43830 | 7.62616 | 2150 ft | 77 kts | 19° |
| 2026-04-27 19:41 | 51.44357 | 7.62771 | 2007 ft | 76 kts | 21° |
| 2026-04-27 19:41 | 51.44883 | 7.62862 | 1889 ft | 81 kts | 359° |
| 2026-04-27 19:42 | 51.45396 | 7.62440 | 1868 ft | 86 kts | 330° |
| 2026-04-27 19:42 | 51.45810 | 7.61741 | 1890 ft | 87 kts | 319° |
| 2026-04-27 19:42 | 51.46203 | 7.60956 | 1909 ft | 90 kts | 316° |
| 2026-04-27 19:42 | 51.46583 | 7.60158 | 1922 ft | 90 kts | 316° |
| 2026-04-27 19:43 | 51.46979 | 7.59395 | 1901 ft | 89 kts | 321° |
| 2026-04-27 19:43 | 51.47398 | 7.58662 | 1834 ft | 89 kts | 321° |
| 2026-04-27 19:43 | 51.47822 | 7.57950 | 1745 ft | 87 kts | 324° |
| 2026-04-27 19:43 | 51.48244 | 7.57265 | 1648 ft | 87 kts | 322° |
| 2026-04-27 19:44 | 51.48683 | 7.56612 | 1541 ft | 84 kts | 332° |
| 2026-04-27 19:44 | 51.49172 | 7.56089 | 1442 ft | 83 kts | 335° |
| 2026-04-27 19:44 | 51.49681 | 7.55665 | 1309 ft | 83 kts | 344° |
| 2026-04-27 19:44 | 51.50066 | 7.56055 | 1083 ft | 83 kts | 81° |
| 2026-04-27 19:45 | 51.50256 | 7.56778 | 1062 ft | 67 kts | 54° |
| 2026-04-27 19:45 | 51.50492 | 7.57313 | 972 ft | 55 kts | 65° |
| 2026-04-27 19:45 | 51.50650 | 7.57882 | 748 ft | 52 kts | 61° |
| 2026-04-27 19:45 | 51.50841 | 7.58373 | 668 ft | 53 kts | 60° |
| 2026-04-27 19:46 | 51.51020 | 7.58870 | 649 ft | 52 kts | 65° |
| 2026-04-27 19:46 | 51.51184 | 7.59381 | 617 ft | 51 kts | 59° |
| 2026-04-27 19:46 | 51.51360 | 7.59882 | 567 ft | 52 kts | 59° |
| 2026-04-27 19:46 | 51.51536 | 7.60380 | 485 ft | 52 kts | 59° |
| 2026-04-27 19:47 | 51.51708 | 7.60867 | 413 ft | 47 kts | 60° |
| 2026-04-27 19:47 | 51.51824 | 7.61197 | 412 ft | 30 kts | 64° |
| 2026-04-27 19:47 | 51.51899 | 7.61410 | 412 ft | 32 kts | 59° |
| 2026-04-27 19:47 | 51.51940 | 7.61527 | 410 ft | 35 kts | 60° |
| 2026-04-27 19:48 | 51.52068 | 7.61889 | 412 ft | 36 kts | 62° |
| 2026-04-27 19:48 | 51.52180 | 7.62209 | 412 ft | 22 kts | 61° |
| 2026-04-27 19:48 | 51.52196 | 7.62297 | 413 ft | 7 kts | 132° |
| 2026-04-27 19:48 | 51.52145 | 7.62348 | 413 ft | 10 kts | 154° |
| 2026-04-27 19:49 | 51.52078 | 7.62403 | 410 ft | 11 kts | 176° |
| 2026-04-27 19:49 | 51.52026 | 7.62317 | 410 ft | 12 kts | 237° |
| 2026-04-27 19:49 | 51.51985 | 7.62197 | 412 ft | 12 kts | 240° |
| 2026-04-27 19:49 | 51.51940 | 7.62070 | 411 ft | 15 kts | 240° |
| 2026-04-27 19:50 | 51.51888 | 7.61917 | 413 ft | 15 kts | 239° |
| 2026-04-27 19:50 | 51.51831 | 7.61758 | 414 ft | 17 kts | 240° |
| 2026-04-27 19:50 | 51.51776 | 7.61604 | 420 ft | 15 kts | 240° |
| 2026-04-27 19:50 | 51.51724 | 7.61460 | 426 ft | 15 kts | 238° |
| 2026-04-27 19:51 | 51.51667 | 7.61300 | 427 ft | 16 kts | 236° |
| 2026-04-27 19:51 | 51.51616 | 7.61149 | 425 ft | 16 kts | 241° |
| 2026-04-27 19:51 | 51.51556 | 7.61050 | 428 ft | 8 kts | 165° |
| 2026-04-27 19:51 | 51.51498 | 7.61029 | 420 ft | 11 kts | 251° |
| 2026-04-27 19:52 | 51.51461 | 7.60919 | 428 ft | 11 kts | 245° |
| 2026-04-27 19:52 | 51.51431 | 7.60832 | 425 ft | 5 kts | 232° |
| 2026-04-27 19:52 | 51.51418 | 7.60797 | 428 ft | 5 kts | 244° |
| 2026-04-27 19:52 | 51.51391 | 7.60715 | 423 ft | 13 kts | 241° |
| 2026-04-27 19:53 | 51.51294 | 7.60435 | 440 ft | 18 kts | 244° |
| 2026-04-27 19:53 | 51.51224 | 7.60237 | 441 ft | 20 kts | 241° |
| 2026-04-27 19:53 | 51.51165 | 7.60161 | 441 ft | 10 kts | 150° |
| 2026-04-27 19:54 | 51.51171 | 7.60248 | 437 ft | 7 kts | 51° |
| 2026-04-27 19:54 | 51.51202 | 7.60314 | 441 ft | 7 kts | 60° |
| 2026-04-27 19:54 | 51.51200 | 7.60385 | 443 ft | 6 kts | 110° |
| 2026-04-27 19:54 | 51.51192 | 7.60422 | 439 ft | 3 kts | 1° |
| 2026-04-27 19:55 | 51.51195 | 7.60418 | 437 ft | 0 kts | 276° |